Nearby METAR Reports

 

KTAN - Taunton, Massachusetts, USA
Distance from station: W 5mi, 8km
Updated: Mon, 15-Aug-2022 4:52pm EDT

 
Barometer: 29.98 inHg , 1015.2 hPa
2022/08/15 20:52 KTAN 152052Z AUTO A2998 RMK AO2 SLPNO 57003 PWINO $
KPYM - Plymouth, Massachusetts, USA
Distance from station: ENE 10mi, 16km
Updated: Mon, 15-Aug-2022 4:52pm EDT
Clear
Clear
 Wind from NE
Wind: NE 9 mph , 15 km/h
Temperature: 77°F , 25°C
Dew Point: 54°F , 12°C
Humidity: 44%
Barometer: 30.01 inHg , 1016.3 hPa
Clouds: Clear
Visibility: 10 miles , 16 km
2022/08/15 20:52 KPYM 152052Z AUTO 05008KT 10SM CLR 25/12 A3001 RMK AO2 SLP161 T02500117 51001
 
KEWB - New Bedford, Massachusetts, USA
Distance from station: S 14mi, 23km
Updated: Mon, 15-Aug-2022 4:53pm EDT
Clear
Clear
 Wind from SE
Wind: SE 12 mph , 19 km/h
Temperature: 75°F , 24°C
Dew Point: 54°F , 12°C
Humidity: 47%
Barometer: 30.00 inHg , 1015.9 hPa
Clouds: Clear
Visibility: 10 miles , 16 km
2022/08/15 20:53 KEWB 152053Z 14010KT 10SM CLR 24/12 A3000 RMK AO2 SLP157 T02440122 55000
KGHG - Marshfield, Massachusetts, USA
Distance from station: NE 20mi, 31km
Updated: Mon, 15-Aug-2022 4:55pm EDT
Clear
Clear
 Wind from E
Wind: E 6 mph , 9 km/h
Temperature: 73°F , 23°C
Dew Point: 59°F , 15°C
Humidity: 61%
Barometer: 30.00 inHg , 1015.9 hPa
Clouds: Clear
Visibility: 10 miles , 16 km
2022/08/15 20:55 KGHG 152055Z AUTO 08005KT 10SM CLR 23/15 A3000 RMK AO2
 
KOWD - Norwood, Massachusetts, USA
Distance from station: NNW 24mi, 39km
Updated: Mon, 15-Aug-2022 4:53pm EDT
Clear
Clear
 Wind from ENE
Wind: ENE 10 mph , 17 km/h
Temperature: 82°F , 28°C
Dew Point: 54°F , 12°C
Humidity: 37%
Barometer: 29.98 inHg , 1015.2 hPa
Clouds: Clear
Visibility: 10 miles , 16 km
2022/08/15 20:53 KOWD 152053Z 06009KT 020V090 10SM CLR 28/12 A2998 RMK AO2 SLP152 T02830117 58003
KMQE - East Milton, Massachusetts, USA
Distance from station: NNW 25mi, 40km
Updated: Thu, 01-Jul-2021 9:51am EDT
NOT Current

 Wind from WNW
Wind: WNW 9 mph , 15 km/h
Temperature: 75°F , 24°C
Dew Point: 70°F , 21°C
Humidity: 83%
Barometer: 29.86 inHg , 1011.2 hPa
2021/07/01 13:51 KMQE 011351Z AUTO 30008KT 24/21 A2986 RMK AO1 SLP116 T02440206
 
KFMH - Falmouth/Otis Ab, Massachusetts, USA
Distance from station: SE 27mi, 44km
Updated: Mon, 15-Aug-2022 3:50pm EDT
Clear
Clear
 Wind from SE
Wind: SE 13 mph , 20 km/h
Temperature: 77°F , 25°C
Dew Point: 52°F , 11°C
Humidity: 42%
Barometer: 30.01 inHg , 1016.3 hPa
Clouds: Clear
Visibility: 10 miles , 16 km
2022/08/15 19:50 KFMH 151950Z 13011KT 10SM CLR 25/11 A3001
KPVD - Providence/Green, Rhode Island, USA
Distance from station: WSW 29mi, 47km
Updated: Mon, 15-Aug-2022 4:51pm EDT
Mostly cloudy
Mostly cloudy
 Wind from SSE
Wind: SSE 14 mph , 22 km/h
Temperature: 79°F , 26°C
Dew Point: 57°F , 14°C
Humidity: 48%
Barometer: 29.99 inHg , 1015.6 hPa
Clouds: Mostly cloudy
Visibility: 10 miles , 16 km
Cloud details: Few Clouds 4700 ft
Partly cloudy 9000 ft
Partly cloudy 20000 ft
Mostly cloudy 25000 ft
2022/08/15 20:51 KPVD 152051Z 16012KT 10SM FEW047 SCT090 SCT200 BKN250 26/14 A2999 RMK AO2 SLP155 CB DSNT W T02560144 50000
 
KSFZ - Pawtucket, Rhode Island, USA
Distance from station: W 30mi, 48km
Updated: Mon, 15-Aug-2022 4:56pm EDT
Clear
Clear
 Wind from ESE
Wind: ESE 9 mph , 15 km/h
Temperature: 79°F , 26°C
Dew Point: 61°F , 16°C
Humidity: 54%
Barometer: 30.00 inHg , 1015.9 hPa
Clouds: Clear
2022/08/15 20:56 KSFZ 152056Z AUTO 12008KT CLR 26/16 A3000 RMK AO2 SLP155 T02610156 55003 $
KUUU - Newport, Rhode Island, USA
Distance from station: SW 31mi, 50km
Updated: Mon, 15-Aug-2022 4:53pm EDT
Mostly cloudy
Mostly cloudy
 Wind from SSE
Wind: SSE 8 mph , 13 km/h
Temperature: 73°F , 23°C
Dew Point: 57°F , 14°C
Humidity: 57%
Barometer: 30.00 inHg , 1015.9 hPa
Clouds: Mostly cloudy
Visibility: 10 miles , 16 km
Cloud details: Mostly cloudy 7500 ft
2022/08/15 20:53 KUUU 152053Z AUTO 15007KT 10SM BKN075 23/14 A3000 RMK AO2 SLP157 T02280144 58002
 
KOQU - N. Kingston/Quon, Rhode Island, USA
Distance from station: SW 32mi, 52km
Updated: Sun, 14-Aug-2022 5:50pm EDT
NOT Current
Mostly cloudy
Mostly cloudy
 Wind from WSW
Wind: WSW 14 mph , 22 km/h
Temperature: 79°F , 26°C
Dew Point: 52°F , 11°C
Humidity: 39%
Barometer: 30.03 inHg , 1016.9 hPa
Clouds: Mostly cloudy
Visibility: 10 miles , 16 km
Cloud details: Mostly cloudy 20000 ft
2022/08/14 21:50 KOQU 142150Z AUTO 24012KT 10SM BKN200 26/11 A3003 RMK LAST
KBOS - Boston, Massachusetts, USA
Distance from station: N 33mi, 54km
Updated: Mon, 15-Aug-2022 4:54pm EDT
Mostly cloudy
Mostly cloudy
 Wind from E
Wind: E 13 mph , 20 km/h
Temperature: 72°F , 22°C
Dew Point: 63°F , 17°C
Humidity: 73%
Barometer: 30.01 inHg , 1016.3 hPa
Clouds: Mostly cloudy
Visibility: 10 miles , 16 km
Cloud details: Few Clouds 4500 ft
Few Clouds 11000 ft
Partly cloudy 18000 ft
Mostly cloudy 25000 ft
2022/08/15 20:54 KBOS 152054Z 08011KT 10SM FEW045 FEW110 SCT180 BKN250 22/17 A3001 RMK AO2 SLP162 T02220167 58003
 
KHYA - Hyannis, Massachusetts, USA
Distance from station: ESE 37mi, 59km
Updated: Mon, 15-Aug-2022 4:56pm EDT
Clear
Clear
 Wind from SE
Wind: SE 7 mph , 11 km/h
Temperature: 73°F , 23°C
Dew Point: 55°F , 13°C
Humidity: 53%
Barometer: 30.00 inHg , 1015.9 hPa
Clouds: Clear
Visibility: 10 miles , 16 km
2022/08/15 20:56 KHYA 152056Z 13006KT 10SM CLR 23/13 A3000 RMK AO2 SLP159 T02330133 55004
KMVY - Marthas Vineyard, Massachusetts, USA
Distance from station: SSE 37mi, 60km
Updated: Mon, 15-Aug-2022 4:53pm EDT
Clear
Clear
 Wind from SSE
Wind: SSE 8 mph , 13 km/h
Temperature: 72°F , 22°C
Dew Point: 61°F , 16°C
Humidity: 69%
Barometer: 30.00 inHg , 1015.9 hPa
Clouds: Clear
Visibility: 10 miles , 16 km
2022/08/15 20:53 KMVY 152053Z 15007KT 10SM CLR 22/16 A3000 RMK AO2 SLP159 T02220161 55004
 
KPVC - Provincetown, Massachusetts, USA
Distance from station: ENE 38mi, 61km
Updated: Tue, 09-Aug-2022 3:56pm EDT
NOT Current
Thunderstorm, Few clouds
Thunderstorm, Few clouds
 Wind from SSW
Wind: SSW 15 mph , 24 km/h
Temperature: 81°F , 27°C
Heat Index: 86°F , 30°C
Dew Point: 73°F , 23°C
Humidity: 79%
Barometer: 29.83 inHg , 1010.2 hPa
Summary: Thunderstorm
Clouds: Few Clouds
Visibility: 10 miles , 16 km
Cloud details: Few Clouds 7500 ft
2022/08/09 19:56 KPVC 091956Z AUTO 20013KT 10SM TS FEW075 27/23 A2983 RMK AO2 LTG DSNT W-N TSB46 SLP101 T02720233
KBED - Bedford, Massachusetts, USA
Distance from station: NNW 44mi, 72km
Updated: Mon, 15-Aug-2022 4:51pm EDT
Clear
Clear
 Wind from E
Wind: E 13 mph , 20 km/h
Temperature: 81°F , 27°C
Dew Point: 46°F , 8°C
Humidity: 30%
Barometer: 29.99 inHg , 1015.6 hPa
Clouds: Clear
Visibility: 10 miles , 16 km
2022/08/15 20:51 KBED 152051Z 09011KT 10SM CLR 27/08 A2999 RMK AO2 SLP165 T02670083 58002
 
KBVY - Beverly, Massachusetts, USA
Distance from station: 0 48mi, 77km
Updated: Mon, 15-Aug-2022 4:53pm EDT
Clear
Clear
 Wind from SE
Wind: SE 13 mph , 20 km/h
Temperature: 75°F , 24°C
Dew Point: 55°F , 13°C
Humidity: 50%
Barometer: 30.00 inHg , 1015.9 hPa
Clouds: Clear
Visibility: 10 miles , 16 km
2022/08/15 20:53 KBVY 152053Z 14011KT 10SM CLR 24/13 A3000 RMK AO2 SLP153 T02440133 58004
KCQX - Chatham, Massachusetts, USA
Distance from station: ESE 49mi, 80km
Updated: Mon, 15-Aug-2022 4:52pm EDT
Clear
Clear
 Wind from E
Wind: E 8 mph , 13 km/h
Temperature: 73°F , 23°C
Dew Point: 59°F , 15°C
Humidity: 61%
Barometer: 30.01 inHg , 1016.3 hPa
Clouds: Clear
Visibility: 10 miles , 16 km
2022/08/15 20:52 KCQX 152052Z AUTO 08007KT 10SM CLR 23/15 A3001 RMK AO2 SLP164 T02280150 58006